Time;durP1;ratioP1;P1;durP2;ratioP2;P2;SDS_P1;SDS_P2;PMS_P1;PMS_P2;Temp;Humidity;BMP_temperature;BMP_pressure;BME280_temperature;BME280_humidity;BME280_pressure;Samples;Min_cycle;Max_cycle;Signal;HPM_P1;HPM_P2
2022/12/17 13:06:44;;;;;;;3.25;1.40;;;;;;;2.70;100.00;100455.72;4948392;29;20098;-82
2022/12/17 13:09:14;;;;;;;3.70;1.50;;;;;;;2.77;100.00;100468.56;4970227;28;20051;-82
2022/12/17 13:11:54;;;;;;;3.60;1.30;;;;;;;2.31;100.00;100399.22;4954153;28;20449;-83
2022/12/17 13:14:29;;;;;;;3.60;1.40;;;;;;;2.77;100.00;100457.38;4951559;28;20046;-82
2022/12/17 13:17:14;;;;;;;3.17;1.17;;;;;;;2.72;100.00;100464.31;4971433;28;20106;-82
2022/12/17 13:19:43;;;;;;;4.50;1.60;;;;;;;2.60;100.00;100460.13;4957489;28;20058;-82
2022/12/17 13:22:16;;;;;;;8.07;2.42;;;;;;;2.66;100.00;100473.00;4956524;29;20047;-82
2022/12/17 13:24:52;;;;;;;7.22;2.22;;;;;;;2.45;100.00;100455.97;4953458;28;20047;-83
2022/12/17 13:27:48;;;;;;;5.28;1.70;;;;;;;2.74;100.00;100471.19;4956205;29;20047;-80
2022/12/17 13:30:23;;;;;;;6.72;1.80;;;;;;;2.65;100.00;100455.75;4948445;28;20047;-81
2022/12/17 13:33:03;;;;;;;5.80;2.00;;;;;;;2.75;100.00;100470.31;4956285;29;20047;-82
2022/12/17 13:35:38;;;;;;;5.70;1.92;;;;;;;2.77;100.00;100470.31;4952247;28;20051;-82
2022/12/17 13:38:37;;;;;;;4.05;1.65;;;;;;;2.32;100.00;100397.50;4957918;28;20043;-82
2022/12/17 13:41:14;;;;;;;4.60;1.75;;;;;;;2.73;100.00;100453.97;4953211;29;20195;-82
2022/12/17 13:43:46;;;;;;;5.70;1.95;;;;;;;2.64;100.00;100436.81;4963651;28;20067;-82
2022/12/17 13:46:25;;;;;;;13.98;3.80;;;;;;;2.67;100.00;100438.50;4956753;29;20403;-82
2022/12/17 13:48:53;;;;;;;8.93;2.72;;;;;;;2.58;100.00;100411.03;4963372;28;20106;-82
2022/12/17 13:51:21;;;;;;;9.18;3.00;;;;;;;2.58;100.00;100413.59;4953296;28;20454;-82
2022/12/17 13:53:59;;;;;;;6.35;2.33;;;;;;;2.65;100.00;100417.84;4944589;28;20047;-82
2022/12/17 13:56:31;;;;;;;8.05;2.55;;;;;;;3.09;100.00;100446.69;4960127;28;20391;-82
2022/12/17 13:59:01;;;;;;;5.38;1.90;;;;;;;3.14;100.00;100451.81;4966993;28;20059;-83
2022/12/17 14:01:46;;;;;;;7.28;2.30;;;;;;;3.02;100.00;100478.66;4957741;28;20055;-85
2022/12/17 14:04:22;;;;;;;8.30;2.40;;;;;;;3.05;100.00;100481.22;4966954;28;20434;-85
2022/12/17 14:06:50;;;;;;;6.00;2.50;;;;;;;3.02;100.00;100463.16;4958984;28;20059;-84
2022/12/17 14:09:20;;;;;;;9.80;2.13;;;;;;;3.14;100.00;100483.72;4960869;28;20489;-83
2022/12/17 14:14:39;;;;;;;7.22;1.80;;;;;;;2.99;100.00;100471.81;4962114;28;20059;-83
2022/12/17 14:17:14;;;;;;;9.60;3.10;;;;;;;2.85;100.00;100440.91;4970986;28;20058;-83
2022/12/17 14:19:41;;;;;;;9.25;2.33;;;;;;;2.95;100.00;100472.69;4958883;28;20046;-84
2022/12/17 14:22:15;;;;;;;12.95;2.55;;;;;;;2.81;100.00;100446.13;4956541;28;20039;-84
2022/12/17 14:24:42;;;;;;;7.72;2.50;;;;;;;3.22;100.00;100491.38;4951793;29;20397;-83
2022/12/17 14:27:29;;;;;;;6.95;2.30;;;;;;;3.03;100.00;100463.13;4962807;28;20055;-84
2022/12/17 14:29:56;;;;;;;7.50;2.17;;;;;;;2.92;100.00;100477.03;4959924;28;20047;-84
2022/12/17 14:32:34;;;;;;;7.07;2.35;;;;;;;3.01;100.00;100508.88;4956683;28;20469;-83
2022/12/17 14:35:02;;;;;;;8.13;2.00;;;;;;;3.09;100.00;100513.94;4958062;28;20054;-83
2022/12/17 14:37:29;;;;;;;5.28;1.85;;;;;;;3.04;100.00;100476.91;4964962;28;20445;-84
2022/12/17 14:40:03;;;;;;;5.80;2.00;;;;;;;2.95;100.00;100464.09;4959262;29;20051;-84
2022/12/17 14:42:34;;;;;;;6.25;1.98;;;;;;;2.89;100.00;100470.19;4958333;28;20051;-84
2022/12/17 14:45:05;;;;;;;5.50;1.70;;;;;;;3.04;100.00;100470.00;4957300;28;20492;-84
2022/12/17 14:47:35;;;;;;;6.00;1.50;;;;;;;3.29;100.00;100503.38;4953933;28;20058;-85
2022/12/17 14:50:11;;;;;;;7.03;1.92;;;;;;;3.40;100.00;100503.28;4957513;29;20074;-85
2022/12/17 14:52:40;;;;;;;4.97;1.55;;;;;;;2.87;100.00;100458.13;4954692;29;20118;-85
2022/12/17 14:55:21;;;;;;;5.55;1.60;;;;;;;3.27;100.00;100524.97;4950180;29;20064;-85
2022/12/17 14:57:49;;;;;;;5.15;1.52;;;;;;;3.03;100.00;100489.00;4951011;29;20105;-84
2022/12/17 15:00:17;;;;;;;3.20;1.40;;;;;;;3.12;100.00;100500.13;4953059;28;20051;-85
2022/12/17 15:02:50;;;;;;;2.35;1.30;;;;;;;3.19;100.00;100520.75;4957910;28;20059;-84
2022/12/17 15:05:17;;;;;;;6.90;1.73;;;;;;;2.88;100.00;100496.06;4959202;28;20710;-85
2022/12/17 15:07:44;;;;;;;3.53;1.40;;;;;;;2.90;100.00;100491.72;4957601;28;20058;-85
2022/12/17 15:10:13;;;;;;;3.45;1.38;;;;;;;3.02;100.00;100510.56;4958201;28;20087;-86
2022/12/17 15:12:42;;;;;;;3.20;1.10;;;;;;;3.26;100.00;100559.47;4961680;28;20067;-85
2022/12/17 15:15:16;;;;;;;3.45;1.30;;;;;;;3.14;100.00;100550.13;4972317;28;20059;-85
2022/12/17 15:17:43;;;;;;;5.38;1.60;;;;;;;2.71;100.00;100516.88;4960466;29;20055;-85
2022/12/17 15:20:16;;;;;;;4.47;1.50;;;;;;;3.07;100.00;100551.06;4961290;28;20102;-84
2022/12/17 15:22:44;;;;;;;4.72;1.60;;;;;;;2.82;100.00;100508.19;4959840;29;20055;-84
2022/12/17 15:25:16;;;;;;;6.03;1.45;;;;;;;3.06;100.00;100545.00;4961205;29;20059;-85
2022/12/17 15:27:43;;;;;;;1.80;1.10;;;;;;;3.11;100.00;100548.41;4960076;29;20051;-85
2022/12/17 15:30:16;;;;;;;4.32;1.83;;;;;;;3.07;100.00;100538.13;4957924;29;20055;-85
2022/12/17 15:32:43;;;;;;;6.22;1.52;;;;;;;3.15;100.00;100555.28;4958577;29;20051;-84
2022/12/17 15:35:11;;;;;;;6.75;1.73;;;;;;;3.19;100.00;100556.13;4960427;28;20054;-85
2022/12/17 15:37:38;;;;;;;3.67;1.42;;;;;;;3.01;100.00;100539.03;4966672;28;20404;-85
2022/12/17 15:40:05;;;;;;;6.80;1.30;;;;;;;2.60;100.00;100511.81;4955539;29;20078;-85
2022/12/17 15:45:18;;;;;;;5.60;1.60;;;;;;;2.87;100.00;100530.53;4974382;28;20102;-85
2022/12/17 15:47:45;;;;;;;5.65;1.70;;;;;;;2.65;100.00;100504.88;4956246;28;20059;-85
2022/12/17 15:50:12;;;;;;;3.33;1.40;;;;;;;2.83;100.00;100535.75;4955688;28;20063;-85
2022/12/17 15:52:38;;;;;;;6.70;1.60;;;;;;;2.99;100.00;100567.50;4965355;28;20051;-85
2022/12/17 15:55:06;;;;;;;4.85;1.48;;;;;;;2.97;100.00;100577.00;4962557;28;20059;-85
2022/12/17 15:57:32;;;;;;;2.22;1.27;;;;;;;2.71;100.00;100542.75;4961494;29;20051;-85
2022/12/17 15:59:59;;;;;;;4.47;1.60;;;;;;;2.55;100.00;100522.22;4960204;29;20052;-85
2022/12/17 16:02:26;;;;;;;3.45;1.60;;;;;;;2.83;100.00;100571.09;4960054;28;20051;-85
2022/12/17 16:04:53;;;;;;;4.32;1.65;;;;;;;2.47;100.00;100535.19;4958462;28;20051;-85
2022/12/17 16:07:20;;;;;;;3.67;1.83;;;;;;;2.30;100.00;100518.09;4957581;29;20112;-84
2022/12/17 16:09:47;;;;;;;4.95;1.77;;;;;;;2.38;100.00;100542.16;4976934;28;20485;-84
2022/12/17 16:12:14;;;;;;;8.80;2.15;;;;;;;2.27;100.00;100531.91;4956259;29;20044;-87
2022/12/17 16:14:41;;;;;;;5.93;2.08;;;;;;;2.45;100.00;100567.09;4960718;28;20114;-85
2022/12/17 16:17:08;;;;;;;5.72;2.00;;;;;;;2.52;100.00;100561.00;4963355;28;20059;-85
2022/12/17 16:19:34;;;;;;;7.55;2.08;;;;;;;2.48;100.00;100574.81;4960522;29;20062;-85
2022/12/17 16:22:02;;;;;;;5.30;2.35;;;;;;;2.58;100.00;100580.75;4961537;28;20058;-85
2022/12/17 16:24:29;;;;;;;9.20;2.65;;;;;;;2.64;100.00;100607.44;4955778;29;20062;-85
2022/12/17 16:26:56;;;;;;;7.75;2.97;;;;;;;2.27;100.00;100550.81;4961273;28;20051;-85
2022/12/17 16:29:30;;;;;;;6.35;2.15;;;;;;;2.35;100.00;100571.44;4954698;29;20405;-85
2022/12/17 16:31:57;;;;;;;6.07;2.40;;;;;;;2.24;100.00;100556.00;4962770;28;20380;-85
2022/12/17 16:34:25;;;;;;;8.40;2.03;;;;;;;2.26;100.00;100580.09;4962989;28;20051;-85
2022/12/17 16:36:52;;;;;;;4.82;1.90;;;;;;;2.15;100.00;100560.38;4960153;28;20051;-85
2022/12/17 16:39:21;;;;;;;4.35;1.67;;;;;;;2.23;100.00;100593.06;4955606;28;20497;-85
2022/12/17 16:41:48;;;;;;;6.97;2.30;;;;;;;2.36;100.00;100632.59;4957167;28;20040;-85
2022/12/17 16:44:15;;;;;;;4.82;1.90;;;;;;;2.13;100.00;100583.63;4962530;28;20651;-85
2022/12/17 16:46:43;;;;;;;9.55;3.63;;;;;;;2.09;100.00;100587.97;4962931;28;20140;-85
2022/12/17 16:49:16;;;;;;;7.10;2.63;;;;;;;2.01;100.00;100565.63;4977151;28;20054;-84
2022/12/17 16:51:45;;;;;;;9.85;4.35;;;;;;;2.30;100.00;100619.69;4966170;28;20474;-85
2022/12/17 16:54:15;;;;;;;8.98;4.30;;;;;;;1.89;100.00;100575.16;4964556;29;20422;-85
2022/12/17 16:56:44;;;;;;;10.25;3.53;;;;;;;2.17;100.00;100637.00;4963656;28;20043;-85
2022/12/17 16:59:12;;;;;;;9.55;3.17;;;;;;;2.04;100.00;100638.78;4962731;28;20046;-84
2022/12/17 17:01:40;;;;;;;15.13;6.93;;;;;;;1.47;100.00;100560.66;4956762;29;20051;-84
2022/12/17 17:04:08;;;;;;;9.98;4.72;;;;;;;2.08;100.00;100658.56;4965919;28;20058;-84
2022/12/17 17:06:46;;;;;;;11.68;4.88;;;;;;;1.94;100.00;100641.41;4952151;28;20048;-85
2022/12/17 17:09:15;;;;;;;11.70;4.97;;;;;;;1.91;100.00;100650.00;4954781;28;20055;-86
2022/12/17 17:11:43;;;;;;;14.45;6.97;;;;;;;1.97;100.00;100672.38;4957537;28;20047;-85
2022/12/17 17:14:16;;;;;;;11.90;5.28;;;;;;;1.98;100.00;100687.84;4958780;28;20063;-85
2022/12/17 17:16:43;;;;;;;11.52;4.63;;;;;;;1.63;100.00;100637.19;4960047;28;20059;-84
2022/12/17 17:19:10;;;;;;;9.93;4.32;;;;;;;1.50;100.00;100628.59;4954407;28;20078;-83
2022/12/17 17:21:40;;;;;;;9.10;3.78;;;;;;;1.38;100.00;100625.19;4954002;28;20043;-84
2022/12/17 17:24:14;;;;;;;9.45;3.75;;;;;;;1.51;100.00;100645.81;4957329;28;20506;-85
2022/12/17 17:26:48;;;;;;;11.57;4.97;;;;;;;1.44;100.00;100632.94;4952612;29;20062;-85
2022/12/17 17:29:15;;;;;;;13.45;5.07;;;;;;;1.70;100.00;100693.09;4958284;28;20047;-84
2022/12/17 17:31:42;;;;;;;10.68;3.75;;;;;;;1.52;100.00;100665.59;4954380;28;20055;-85
2022/12/17 17:34:28;;;;;;;9.07;4.10;;;;;;;1.31;100.00;100661.31;4949354;29;20493;-83
2022/12/17 17:36:55;;;;;;;11.40;4.40;;;;;;;1.11;100.00;100647.56;4968131;28;20047;-83
2022/12/17 17:39:22;;;;;;;9.27;3.60;;;;;;;0.97;100.00;100641.56;4951940;29;20099;-84
2022/12/17 17:41:49;;;;;;;9.00;4.15;;;;;;;1.09;100.00;100675.94;4951035;29;20052;-82
2022/12/17 17:44:15;;;;;;;16.90;6.15;;;;;;;0.83;100.00;100631.22;4945205;28;20060;-83
2022/12/17 17:46:42;;;;;;;10.90;4.90;;;;;;;1.44;100.00;100725.81;4955091;28;20089;-84
2022/12/17 17:49:10;;;;;;;12.98;6.18;;;;;;;1.51;100.00;100723.22;4954378;28;20055;-84
2022/12/17 17:51:40;;;;;;;9.95;4.65;;;;;;;1.42;100.00;100712.06;4954465;28;20481;-83
2022/12/17 17:54:27;;;;;;;11.95;4.63;;;;;;;1.20;100.00;100677.66;4958999;28;20552;-84
2022/12/17 17:56:54;;;;;;;9.82;4.13;;;;;;;0.90;100.00;100657.03;4956193;29;20635;-83
2022/12/17 17:59:22;;;;;;;13.73;4.55;;;;;;;1.07;100.00;100676.81;4953205;29;20629;-83
2022/12/17 18:01:58;;;;;;;11.50;4.38;;;;;;;1.12;100.00;100693.16;4956371;28;20130;-84
2022/12/17 18:04:25;;;;;;;13.07;6.03;;;;;;;1.09;100.00;100693.97;4962087;28;20055;-84
2022/12/17 18:06:51;;;;;;;12.98;5.60;;;;;;;0.93;100.00;100666.47;4963754;28;20109;-84
2022/12/17 18:09:38;;;;;;;11.63;4.28;;;;;;;1.17;100.00;100699.16;4950648;28;20090;-83
2022/12/17 18:13:53;;;;;;;11.43;5.00;;;;;;;1.27;100.00;100718.06;4951682;28;20052;-85
2022/12/17 18:14:52;;;;;;;11.68;5.10;;;;;;;0.87;100.00;100658.75;4957748;29;20051;-84
2022/12/17 18:17:39;;;;;;;10.65;4.55;;;;;;;0.94;100.00;100686.25;4966055;28;20074;-85
2022/12/17 18:20:08;;;;;;;9.88;3.92;;;;;;;0.93;100.00;100712.88;4959312;28;20057;-85
2022/12/17 18:22:35;;;;;;;10.73;5.03;;;;;;;0.84;100.00;100711.16;4960780;28;20047;-84
2022/12/17 18:25:02;;;;;;;23.20;10.85;;;;;;;0.64;100.00;100675.03;4961543;28;20050;-85
2022/12/17 18:27:29;;;;;;;100.40;42.13;;;;;;;0.61;100.00;100700.78;4960890;28;20051;-85
2022/12/17 18:29:55;;;;;;;29.88;14.43;;;;;;;0.35;100.00;100677.50;4960481;29;20087;-85
2022/12/17 18:32:22;;;;;;;31.67;13.77;;;;;;;0.79;100.00;100753.25;4960700;28;20059;-85
2022/12/17 18:34:49;;;;;;;25.83;11.13;;;;;;;0.89;100.00;100761.00;4960474;29;20051;-85
2022/12/17 18:37:16;;;;;;;26.88;11.75;;;;;;;0.54;100.00;100684.44;4964615;28;20058;-85
2022/12/17 18:39:43;;;;;;;18.00;8.48;;;;;;;0.87;100.00;100738.66;4964880;28;20051;-85
2022/12/17 18:44:55;;;;;;;13.95;5.75;;;;;;;0.81;100.00;100713.72;4955487;29;20056;-85
2022/12/17 18:47:23;;;;;;;15.13;7.32;;;;;;;0.91;100.00;100725.78;4977753;28;20043;-85
2022/12/17 18:49:50;;;;;;;11.18;4.95;;;;;;;1.11;100.00;100763.63;4963201;29;20624;-85
2022/12/17 18:52:17;;;;;;;11.43;5.38;;;;;;;0.81;100.00;100730.91;4964265;28;20050;-85
2022/12/17 18:54:44;;;;;;;11.38;4.63;;;;;;;0.73;100.00;100728.31;4974623;28;20084;-85
2022/12/17 18:57:11;;;;;;;9.60;4.15;;;;;;;0.79;100.00;100748.94;4963078;28;20054;-84
2022/12/17 18:59:39;;;;;;;10.95;4.75;;;;;;;1.18;100.00;100811.78;4961490;28;20051;-85
2022/12/17 19:02:14;;;;;;;13.80;5.40;;;;;;;0.80;100.00;100754.94;4958732;29;20055;-84
2022/12/17 19:04:41;;;;;;;12.73;5.53;;;;;;;0.92;100.00;100791.97;4979836;28;20051;-85
2022/12/17 19:07:09;;;;;;;11.70;5.13;;;;;;;0.96;100.00;100818.59;4971105;28;20062;-84
2022/12/17 19:09:37;;;;;;;14.57;5.68;;;;;;;0.71;100.00;100786.72;4958795;28;20516;-85
2022/12/17 19:12:06;;;;;;;14.85;6.63;;;;;;;0.82;100.00;100803.09;4968114;28;20038;-85
2022/12/17 19:14:33;;;;;;;10.57;4.82;;;;;;;0.44;100.00;100759.97;4965314;28;20047;-85
2022/12/17 19:17:00;;;;;;;20.98;10.02;;;;;;;0.40;100.00;100755.66;4959916;28;20059;-85
2022/12/17 19:19:27;;;;;;;13.00;5.80;;;;;;;0.65;100.00;100809.88;4957746;29;20110;-84
2022/12/17 19:21:57;;;;;;;11.60;5.55;;;;;;;0.69;100.00;100819.34;4957984;29;20051;-85
2022/12/17 19:24:24;;;;;;;12.23;5.45;;;;;;;0.66;100.00;100803.91;4955315;28;20549;-84
2022/12/17 19:26:51;;;;;;;11.63;5.88;;;;;;;0.59;100.00;100800.41;4960017;28;20047;-85
2022/12/17 19:29:19;;;;;;;11.32;4.75;;;;;;;0.68;100.00;100804.75;4963417;29;20114;-84
2022/12/17 19:31:47;;;;;;;10.80;5.63;;;;;;;0.95;100.00;100851.25;4961246;28;20051;-85
2022/12/17 19:34:15;;;;;;;13.38;6.43;;;;;;;0.53;100.00;100785.81;4953639;28;20050;-83
2022/12/17 19:36:43;;;;;;;12.40;5.43;;;;;;;0.94;100.00;100852.13;4960944;28;20054;-84
2022/12/17 19:39:12;;;;;;;11.98;5.68;;;;;;;0.66;100.00;100811.63;4955739;29;20052;-84
2022/12/17 19:41:39;;;;;;;11.27;5.10;;;;;;;0.50;100.00;100785.78;4969215;28;20177;-85
2022/12/17 19:44:11;;;;;;;16.05;6.80;;;;;;;0.90;100.00;100873.59;4958479;28;20058;-84
2022/12/17 19:46:38;;;;;;;12.23;5.38;;;;;;;0.85;100.00;100867.56;4958234;28;20051;-84
2022/12/17 19:49:05;;;;;;;12.32;5.95;;;;;;;0.51;100.00;100813.28;4954886;28;20054;-83
2022/12/17 19:51:32;;;;;;;9.68;5.05;;;;;;;0.32;100.00;100802.00;4955977;28;20055;-85
2022/12/17 19:53:59;;;;;;;8.98;4.25;;;;;;;0.69;100.00;100860.56;4953330;29;20066;-84
2022/12/17 19:56:34;;;;;;;11.48;4.43;;;;;;;0.30;100.00;100806.28;4958297;28;20047;-84
2022/12/17 19:59:05;;;;;;;9.73;4.72;;;;;;;0.63;100.00;100870.88;4954492;29;20051;-85
2022/12/17 20:01:35;;;;;;;8.32;4.30;;;;;;;0.56;100.00;100859.66;4954291;29;20043;-84
2022/12/17 20:04:03;;;;;;;8.38;3.72;;;;;;;0.55;100.00;100852.81;4956007;28;20043;-84
2022/12/17 20:06:33;;;;;;;9.60;4.53;;;;;;;0.85;100.00;100888.19;4953291;29;20051;-83
2022/12/17 20:09:02;;;;;;;13.75;6.97;;;;;;;0.89;100.00;100894.22;4952748;29;20052;-83
2022/12/17 20:11:32;;;;;;;11.63;4.93;;;;;;;0.79;100.00;100871.81;4942836;28;20051;-83
2022/12/17 20:13:58;;;;;;;10.20;4.05;;;;;;;1.09;100.00;100897.72;4956764;28;20085;-82
2022/12/17 20:16:27;;;;;;;9.95;3.60;;;;;;;1.17;100.00;100896.88;4946153;28;20051;-83
2022/12/17 20:18:53;;;;;;;12.45;6.07;;;;;;;1.10;100.00;100883.13;4947763;28;20048;-82
2022/12/17 20:21:20;;;;;;;10.98;4.22;;;;;;;1.04;100.00;100881.34;4960726;28;20055;-83
2022/12/17 20:23:48;;;;;;;10.65;4.00;;;;;;;1.17;100.00;100917.50;4944206;28;20707;-83
2022/12/17 20:26:15;;;;;;;9.05;2.97;;;;;;;1.05;100.00;100901.16;4936501;28;20103;-83
2022/12/17 20:28:43;;;;;;;10.65;3.20;;;;;;;1.10;100.00;100907.19;4944194;28;20067;-83
2022/12/17 20:31:10;;;;;;;8.75;3.38;;;;;;;1.12;100.00;100904.63;4943521;28;20438;-82
2022/12/17 20:33:37;;;;;;;11.27;4.50;;;;;;;0.82;100.00;100854.63;4942780;28;20051;-83
2022/12/17 20:36:06;;;;;;;11.43;4.53;;;;;;;1.20;100.00;100912.38;4952153;28;20055;-83
2022/12/17 20:38:33;;;;;;;9.55;4.45;;;;;;;1.07;100.00;100904.59;4951912;28;20557;-82
2022/12/17 20:41:00;;;;;;;11.50;4.65;;;;;;;1.08;100.00;100911.47;4962410;28;20051;-83
2022/12/17 20:43:27;;;;;;;9.35;3.75;;;;;;;1.04;100.00;100908.88;4949220;28;20098;-83
2022/12/17 20:45:56;;;;;;;9.70;4.18;;;;;;;0.92;100.00;100926.03;4936168;28;20494;-83
2022/12/17 20:48:23;;;;;;;10.23;4.07;;;;;;;0.82;100.00;100926.81;4943445;29;20051;-83
2022/12/17 20:50:50;;;;;;;8.63;3.53;;;;;;;0.64;100.00;100900.91;4945209;28;20055;-83
2022/12/17 20:53:17;;;;;;;10.32;3.85;;;;;;;0.60;100.00;100912.94;4945998;28;20060;-83
2022/12/17 20:55:44;;;;;;;10.73;4.50;;;;;;;0.48;100.00;100902.53;4962893;28;20055;-83
2022/12/17 20:58:12;;;;;;;13.70;4.57;;;;;;;0.20;100.00;100873.19;4958713;28;20055;-82
2022/12/17 21:00:39;;;;;;;11.13;4.75;;;;;;;0.39;100.00;100908.53;4944330;28;20072;-83
2022/12/17 21:03:06;;;;;;;10.90;5.03;;;;;;;0.22;100.00;100900.66;4946516;28;20051;-83
2022/12/17 21:05:34;;;;;;;16.90;8.15;;;;;;;0.16;100.00;100901.47;4949084;28;20486;-83
2022/12/17 21:08:01;;;;;;;16.77;7.95;;;;;;;0.03;100.00;100911.66;4950018;28;20636;-82
2022/12/17 21:10:27;;;;;;;28.45;13.48;;;;;;;-0.04;100.00;100928.75;4950468;28;20051;-83
2022/12/17 21:15:39;;;;;;;29.05;13.70;;;;;;;0.05;100.00;100925.41;4952896;28;20102;-83
2022/12/17 21:18:06;;;;;;;18.50;9.35;;;;;;;-0.01;100.00;100923.66;4945082;28;20554;-83
2022/12/17 21:20:33;;;;;;;18.25;8.60;;;;;;;-0.04;100.00;100934.75;4947443;29;20047;-83
2022/12/17 21:23:00;;;;;;;18.90;8.73;;;;;;;-0.06;100.00;100953.63;4951479;28;20052;-83
2022/12/17 21:25:27;;;;;;;15.18;7.60;;;;;;;-0.22;100.00;100948.31;4945650;28;20126;-83
2022/12/17 21:27:53;;;;;;;15.85;7.72;;;;;;;-0.14;100.00;100968.13;4954965;28;20126;-83
2022/12/17 21:30:20;;;;;;;18.15;8.07;;;;;;;-0.42;100.00;100939.56;4965640;28;20066;-83
2022/12/17 21:32:47;;;;;;;15.68;6.82;;;;;;;-0.32;100.00;100950.78;4953147;28;20051;-83
2022/12/17 21:35:14;;;;;;;16.63;8.32;;;;;;;-0.25;100.00;100976.63;4967017;28;20062;-83
2022/12/17 21:37:42;;;;;;;13.75;6.07;;;;;;;-0.17;100.00;100987.00;4950260;28;20513;-82
2022/12/17 21:40:10;;;;;;;11.05;5.00;;;;;;;-0.14;100.00;100975.84;4952010;28;20162;-83
2022/12/17 21:45:23;;;;;;;10.82;4.38;;;;;;;-0.09;100.00;100974.19;4955467;28;20500;-85
2022/12/17 21:47:49;;;;;;;10.43;3.88;;;;;;;0.05;100.00;100997.50;4952569;28;20051;-85
2022/12/17 21:50:16;;;;;;;9.30;3.97;;;;;;;-0.03;100.00;100993.13;4954408;28;20513;-85
2022/12/17 21:52:43;;;;;;;9.13;3.40;;;;;;;0.01;100.00;100982.88;4952043;28;20122;-85
2022/12/17 21:55:10;;;;;;;11.82;4.43;;;;;;;-0.01;100.00;100982.84;4944108;28;20102;-85
2022/12/17 21:57:37;;;;;;;8.80;3.45;;;;;;;0.04;100.00;100994.06;4949446;28;20050;-85
2022/12/17 22:00:04;;;;;;;10.60;4.80;;;;;;;0.16;100.00;101012.22;4949826;28;20689;-85
2022/12/17 22:02:31;;;;;;;10.50;3.83;;;;;;;0.01;100.00;100990.59;4948322;28;20047;-85
2022/12/17 22:04:59;;;;;;;12.13;5.35;;;;;;;-0.09;100.00;100993.09;4950683;28;20057;-85
2022/12/17 22:07:26;;;;;;;12.40;5.03;;;;;;;-0.04;100.00;100999.13;4950432;28;20506;-85
2022/12/17 22:10:00;;;;;;;10.25;4.15;;;;;;;-0.03;100.00;101013.72;4959190;28;20066;-85
2022/12/17 22:15:32;;;;;;;8.13;3.20;;;;;;;-0.07;100.00;101023.97;4943701;28;20106;-85
2022/12/17 22:18:13;;;;;;;8.32;3.00;;;;;;;-0.12;100.00;101017.94;4951186;29;20414;-85
2022/12/17 22:20:40;;;;;;;7.95;3.10;;;;;;;-0.28;100.00;100978.31;4947437;29;20058;-85
2022/12/17 22:23:07;;;;;;;7.78;2.97;;;;;;;-0.09;100.00;101039.44;4945288;28;20110;-85
2022/12/17 22:25:36;;;;;;;8.75;3.85;;;;;;;-0.21;100.00;101021.28;4948559;29;20059;-85
2022/12/17 22:28:04;;;;;;;10.55;4.20;;;;;;;-0.21;100.00;101032.41;4943167;28;20055;-85
2022/12/17 22:33:16;;;;;;;10.05;3.47;;;;;;;-0.64;100.00;100979.59;4948322;28;20051;-85
2022/12/17 22:36:03;;;;;;;9.38;3.53;;;;;;;-0.49;100.00;101015.78;4946618;28;20129;-85
2022/12/17 22:38:50;;;;;;;9.63;3.67;;;;;;;-0.49;100.00;101017.50;4947584;29;20082;-85
2022/12/17 22:45:02;;;;;;;9.18;4.15;;;;;;;-0.46;100.00;101031.28;4959867;28;20133;-85
2022/12/17 22:47:36;;;;;;;9.00;3.38;;;;;;;-0.50;100.00;101031.22;4943300;28;20055;-85
2022/12/17 22:50:03;;;;;;;10.20;3.67;;;;;;;-0.38;100.00;101057.09;4946005;28;20070;-85
2022/12/17 22:52:31;;;;;;;7.80;3.30;;;;;;;-0.33;100.00;101057.16;4965041;28;20058;-85
2022/12/17 22:54:58;;;;;;;12.27;4.72;;;;;;;-0.48;100.00;101052.66;4959117;28;20134;-85
2022/12/17 22:57:25;;;;;;;8.07;3.60;;;;;;;-0.55;100.00;101043.13;4959673;28;20713;-85
2022/12/17 23:00:16;;;;;;;9.60;3.90;;;;;;;-0.51;100.00;101058.66;4945508;29;20058;-85
2022/12/17 23:02:42;;;;;;;8.77;3.20;;;;;;;-0.35;100.00;101064.84;4942370;28;20046;-85
2022/12/17 23:05:10;;;;;;;11.98;4.30;;;;;;;-0.49;100.00;101076.69;4961941;28;20054;-85
2022/12/17 23:07:36;;;;;;;8.82;3.78;;;;;;;-0.52;100.00;101071.47;4948267;28;20066;-85
2022/12/17 23:10:04;;;;;;;11.95;4.50;;;;;;;-0.64;100.00;101065.34;4946553;28;20482;-85
2022/12/17 23:12:49;;;;;;;9.82;4.28;;;;;;;-0.85;100.00;101016.16;4945492;28;20118;-85
2022/12/17 23:15:27;;;;;;;12.25;4.07;;;;;;;-0.42;100.00;101084.47;4947061;28;20406;-85
2022/12/17 23:17:55;;;;;;;10.02;3.72;;;;;;;-0.58;100.00;101067.97;4945829;28;20470;-85
2022/12/17 23:20:23;;;;;;;11.35;4.30;;;;;;;-0.69;100.00;101048.97;4948872;28;21130;-85
2022/12/17 23:22:50;;;;;;;10.70;3.90;;;;;;;-0.42;100.00;101078.47;4948444;28;20107;-85
2022/12/17 23:25:16;;;;;;;9.30;3.42;;;;;;;-0.73;100.00;101031.75;4959469;28;20470;-85
2022/12/17 23:27:44;;;;;;;9.73;3.78;;;;;;;-0.63;100.00;101043.06;4946577;28;20051;-85
2022/12/17 23:30:13;;;;;;;8.73;3.15;;;;;;;-0.39;100.00;101078.50;4945278;28;20054;-85
2022/12/17 23:32:41;;;;;;;6.65;2.47;;;;;;;-0.47;100.00;101065.56;4946720;28;20095;-85
2022/12/17 23:35:08;;;;;;;8.48;2.80;;;;;;;-0.22;100.00;101076.16;4945653;28;20047;-85
2022/12/17 23:37:35;;;;;;;6.68;2.58;;;;;;;-0.21;100.00;101070.16;4949692;28;20079;-85
2022/12/17 23:40:10;;;;;;;8.27;2.83;;;;;;;-0.12;100.00;101067.69;4944954;28;20067;-85
2022/12/17 23:42:37;;;;;;;6.57;2.55;;;;;;;-0.09;100.00;101074.56;4946947;29;20386;-85
2022/12/17 23:45:05;;;;;;;6.78;2.45;;;;;;;-0.14;100.00;101084.84;4947939;28;20051;-85
2022/12/17 23:47:32;;;;;;;6.63;2.42;;;;;;;-0.10;100.00;101080.59;4948453;28;20059;-85
2022/12/17 23:49:58;;;;;;;5.82;2.10;;;;;;;-0.17;100.00;101074.50;4944860;29;20115;-86
2022/12/17 23:52:25;;;;;;;5.45;2.20;;;;;;;-0.16;100.00;101096.84;4945869;29;20046;-85
2022/12/17 23:54:52;;;;;;;6.18;2.10;;;;;;;-0.21;100.00;101101.91;4951108;28;20483;-85
2022/12/17 23:57:19;;;;;;;13.05;2.17;;;;;;;-0.43;100.00;101090.47;4946469;28;20102;-85
2022/12/17 23:59:46;;;;;;;5.50;2.33;;;;;;;-0.41;100.00;101096.50;4948142;28;20059;-85
